Home   Weather   USA   Escanaba   Past weeks
Flag for USA

Past Weather in Escanaba, Michigan, USA — Yesterday and Last 2 Weeks

Currently: 45 °F. Fog. (Weather station: Escanaba Delta County Airport, USA). See more current weather

Past Weather in Escanaba — Graph

°F

Escanaba Temperature Yesterday

Maximum temperature yesterday: 68 °F (at 1:56 pm)
Minimum temperature yesterday: 49 °F (at 10:56 pm)
Average temperature yesterday: 57 °F

High & Low Weather Summary for the Past Weeks

 TemperatureHumidityPressure
High77 °F (Sep 17, 12:56 pm)100% (Sep 13, 5:56 am)30.31 "Hg (Sep 13, 5:56 am)
Low42 °F (Sep 18, 7:56 am)35% (Sep 15, 2:56 pm)29.56 "Hg (Sep 14, 9:56 am)
Average59 °F80%29.94 "Hg
* Reported Sep 12 10:56 pm — Sep 27 10:56 pm, Escanaba. Weather by CustomWeather, © 2021

Note: Actual official high and low records may vary slightly from our data, if they occured in-between our weather recording intervals... More about our weather records

Escanaba Weather History for the Previous 24 Hours

Scroll right to see more
 ConditionsComfort  
Time TempWeatherWind HumidityBarometerVisibility
10:56 pm
Mon, Sep 27
49 °FClear.3 mph90%29.99 "Hg10 mi
9:56 pm51 °FClear.3 mph86%29.98 "Hg10 mi
8:56 pm54 °FClear.3 mph77%29.98 "Hg10 mi
7:56 pm57 °FClear.6 mph67%29.95 "Hg10 mi
6:56 pm61 °FSunny.6 mph58%29.93 "Hg10 mi
5:56 pm63 °FSunny.9 mph56%29.91 "Hg10 mi
4:56 pm66 °FSunny.8 mph52%29.89 "Hg10 mi
3:56 pm66 °FPassing clouds.10 mph56%29.88 "Hg10 mi
2:56 pm67 °FScattered clouds.10 mph55%29.87 "Hg10 mi
1:56 pm68 °FSunny.10 mph55%29.88 "Hg10 mi
12:56 pm66 °FSunny.10 mph61%29.86 "Hg10 mi
11:56 am64 °FSunny.8 mph63%29.85 "Hg10 mi
10:56 am60 °FSunny.8 mph80%29.84 "Hg10 mi
9:56 am59 °FSunny.9 mph87%29.82 "Hg10 mi
8:56 am55 °FSunny.5 mph93%29.80 "Hg10 mi
7:56 am53 °FSunny.6 mph96%29.78 "Hg10 mi
6:56 am52 °FClear.6 mph100%29.75 "Hg10 mi
5:56 am51 °FClear.3 mph100%29.74 "Hg10 mi
4:56 am51 °FClear.5 mph100%29.72 "Hg10 mi
3:56 am52 °FClear.3 mph100%29.72 "Hg10 mi
3:31 am50 °FFog.No wind100%29.70 "Hg1 mi
3:19 am50 °FFog.3 mph100%29.70 "Hg1 mi
2:56 am50 °FFog.No wind96%N/A0 mi
2:26 am52 °FFog.No wind100%29.70 "Hg1 mi
2:23 am54 °FFog.No wind94%29.69 "Hg2 mi
1:44 am54 °FFog.No wind94%29.70 "Hg1 mi
12:56 am57 °FClear.3 mph93%29.71 "Hg10 mi
Weather by CustomWeather, © 2021

See weather overview